Argo — SMOH — position and weather

sailwx.info

Track history (hours):
 
Tides and Currents Weather Stations Pressure Air Temp Water Temp Dewpoint Dewpoint Depression Visibility Wind Speed Wind Dir Waves Ship Positions

Argo

Last reported at 2014-Nov-26 08:33 UTC. Time now 2014-Dec-19 11:56 UTC.
Position N 56°60' E 016°39'.
Warning: this ship's position is 23 days out of date.

Length 26 m.

MMSI: 265591600.

Date/timePositionNaut miles runAvg speedWind from/ knotsBaromVisibWave heightAir tempDewpointWater temp
2014-Nov-26 08:33N 56°60' E 016°39'1716.9
2014-Nov-26 07:33N 57°16' E 016°28'1 0.1
2014-Nov-25 21:09N 57°16' E 016°27'4 7.0
2014-Nov-25 20:33N 57°17' E 016°35'8 8.4
2014-Nov-25 19:34N 57°23' E 016°46'1514.8
2014-Nov-25 18:34N 57°37' E 016°45'5 4.8
2014-Nov-25 17:30N 57°42' E 016°44'4 3.8
2014-Nov-25 16:33N 57°45' E 016°47'  
2014-Nov-18 18:33N 59°24' E 018°21'0 0.2
2014-Nov-18 17:13N 59°24' E 018°21'  
Track history (hours):
 
Tides and Currents Weather Stations Pressure Air Temp Water Temp Dewpoint Dewpoint Depression Visibility Wind Speed Wind Dir Waves Ship Positions

Argo

Last reported at 2014-Nov-26 08:33 UTC. Time now 2014-Dec-19 11:56 UTC.
Position N 56°60' E 016°39'.
Warning: this ship's position is 23 days out of date.

Length 26 m.

MMSI: 265591600.

Date/timePositionNaut miles runAvg speedWind from/ knotsBaromVisibWave heightAir tempDewpointWater temp
2014-Nov-26 08:33N 56°60' E 016°39'1716.9
2014-Nov-26 07:33N 57°16' E 016°28'1 0.1
2014-Nov-25 21:09N 57°16' E 016°27'4 7.0
2014-Nov-25 20:33N 57°17' E 016°35'8 8.4
2014-Nov-25 19:34N 57°23' E 016°46'1514.8
2014-Nov-25 18:34N 57°37' E 016°45'5 4.8
2014-Nov-25 17:30N 57°42' E 016°44'4 3.8
2014-Nov-25 16:33N 57°45' E 016°47'  
2014-Nov-18 18:33N 59°24' E 018°21'0 0.2
2014-Nov-18 17:13N 59°24' E 018°21'  

Dump ship's entire track history